Time;durP1;ratioP1;P1;durP2;ratioP2;P2;SDS_P1;SDS_P2;PMS_P1;PMS_P2;Temp;Humidity;BMP_temperature;BMP_pressure;BME280_temperature;BME280_humidity;BME280_pressure;Samples;Min_cycle;Max_cycle;Signal;HPM_P1;HPM_P2
2023/04/05 07:34:31;;;;;;;7.40;5.33;;;5.20;99.90;;;;;;5028270;28;20287;-76
2023/04/05 07:38:25;;;;;;;7.83;4.93;;;5.90;99.90;;;;;;5132536;27;20271;-75
2023/04/05 07:41:59;;;;;;;5.00;4.50;;;6.00;99.10;;;;;;5132418;27;20287;-76
2023/04/05 07:45:15;;;;;;;11.03;4.80;;;6.40;98.10;;;;;;5132412;27;20267;-76
2023/04/05 07:48:49;;;;;;;6.27;4.80;;;7.00;95.90;;;;;;5132397;27;20278;-76
2023/04/05 07:52:47;;;;;;;6.73;4.60;;;7.60;93.10;;;;;;5132208;27;20294;-76
2023/04/05 07:55:12;;;;;;;5.50;3.60;;;7.80;91.80;;;;;;5130330;28;20564;-76
2023/04/05 07:57:38;;;;;;;8.10;4.83;;;7.90;91.40;;;;;;5131598;27;20600;-75
2023/04/05 08:00:10;;;;;;;5.30;3.50;;;8.20;88.60;;;;;;5131358;27;20528;-76
2023/04/05 08:02:36;;;;;;;6.23;3.77;;;8.00;88.30;;;;;;5131492;27;20695;-76
2023/04/05 08:05:02;;;;;;;7.77;3.50;;;8.30;86.70;;;;;;5130286;28;20653;-76
2023/04/05 08:07:28;;;;;;;6.30;3.57;;;8.30;82.30;;;;;;5130119;28;20183;-76
2023/04/05 08:09:56;;;;;;;6.23;3.77;;;8.60;80.20;;;;;;5131424;27;20177;-76
2023/04/05 08:12:22;;;;;;;8.53;3.57;;;8.70;81.30;;;;;;5131132;27;20569;-76
2023/04/05 08:14:48;;;;;;;3.93;3.30;;;8.90;79.70;;;;;;5131172;27;20179;-76
2023/04/05 08:17:15;;;;;;;5.37;3.30;;;8.50;75.00;;;;;;5131409;27;20185;-76
2023/04/05 08:19:40;;;;;;;6.97;2.93;;;8.70;80.00;;;;;;5129659;28;20659;-76
2023/04/05 08:22:06;;;;;;;4.33;3.27;;;8.70;73.30;;;;;;5130926;27;20197;-76
2023/04/05 08:24:32;;;;;;;3.30;2.87;;;8.30;75.70;;;;;;5129602;28;20193;-76
2023/04/05 08:26:57;;;;;;;6.37;3.10;;;8.40;69.90;;;;;;5130954;27;20174;-76
2023/04/05 08:29:23;;;;;;;4.37;2.93;;;8.00;66.10;;;;;;5130857;27;20184;-76
2023/04/05 08:31:49;;;;;;;3.97;2.80;;;8.50;68.10;;;;;;5130574;27;20294;-76
2023/04/05 08:34:14;;;;;;;3.53;2.97;;;8.50;67.30;;;;;;5131089;27;20221;-76
2023/04/05 08:36:40;;;;;;;4.10;3.30;;;8.60;69.70;;;;;;5129964;28;20179;-76
2023/04/05 08:39:06;;;;;;;3.93;3.23;;;8.70;66.60;;;;;;5131103;27;20172;-76
2023/04/05 08:41:39;;;;;;;5.00;3.30;;;8.20;66.20;;;;;;5129698;28;20179;-77
2023/04/05 08:44:09;;;;;;;4.77;3.20;;;7.70;69.10;;;;;;5129841;28;20277;-76
2023/04/05 08:46:35;;;;;;;10.27;3.73;;;8.20;70.80;;;;;;5130189;28;20194;-77
2023/04/05 08:49:07;;;;;;;4.17;3.33;;;8.30;69.60;;;;;;5131004;27;20175;-76
2023/04/05 08:51:37;;;;;;;3.50;3.07;;;8.40;68.00;;;;;;5130256;27;20214;-76
2023/04/05 08:54:04;;;;;;;4.47;3.50;;;8.30;70.80;;;;;;5129647;28;20262;-76
2023/04/05 08:56:34;;;;;;;4.93;3.47;;;8.40;71.40;;;;;;5131056;28;20167;-76
2023/04/05 08:59:04;;;;;;;3.30;3.00;;;8.90;74.20;;;;;;5130753;28;20257;-76
2023/04/05 09:01:32;;;;;;;4.57;3.10;;;8.10;69.20;;;;;;5130713;28;20168;-76
2023/04/05 09:04:11;;;;;;;3.50;3.03;;;7.90;68.40;;;;;;5118343;28;20175;-76
2023/04/05 09:06:37;;;;;;;12.47;3.33;;;8.00;68.40;;;;;;5117047;28;20159;-76
2023/04/05 09:09:06;;;;;;;4.47;3.00;;;8.30;68.80;;;;;;5117160;28;20164;-76
2023/04/05 09:11:33;;;;;;;3.27;2.80;;;8.20;64.90;;;;;;5116625;28;20211;-76
2023/04/05 09:14:04;;;;;;;4.77;3.10;;;8.40;64.10;;;;;;5116786;28;20254;-76
2023/04/05 09:16:38;;;;;;;5.77;3.30;;;8.70;65.30;;;;;;5115624;28;20193;-76
2023/04/05 09:19:04;;;;;;;4.80;3.03;;;9.10;69.20;;;;;;5116763;28;20159;-76
2023/04/05 09:21:50;;;;;;;3.63;3.07;;;8.80;65.50;;;;;;5115210;28;20203;-76
2023/04/05 09:24:40;;;;;;;3.13;2.67;;;8.40;69.30;;;;;;5116869;28;20184;-76
2023/04/05 09:27:11;;;;;;;5.70;2.97;;;8.70;68.20;;;;;;5115438;28;20637;-76
2023/04/05 09:29:42;;;;;;;4.63;3.10;;;8.60;66.30;;;;;;5116391;28;20166;-76
2023/04/05 09:32:09;;;;;;;4.93;3.00;;;7.70;63.30;;;;;;5116341;28;20577;-76
2023/04/05 09:34:36;;;;;;;5.03;3.23;;;7.00;68.50;;;;;;5116467;28;20645;-76
2023/04/05 09:37:22;;;;;;;4.17;2.80;;;7.00;67.00;;;;;;5116321;28;20630;-76
2023/04/05 09:39:50;;;;;;;4.53;2.77;;;7.50;69.30;;;;;;5115991;28;20194;-76
2023/04/05 09:42:18;;;;;;;4.63;3.13;;;8.10;71.70;;;;;;5114865;28;20204;-76
2023/04/05 09:45:06;;;;;;;5.47;3.33;;;8.50;67.80;;;;;;5116503;28;20182;-77
2023/04/05 09:47:35;;;;;;;5.00;2.63;;;8.30;67.10;;;;;;5116183;28;20244;-77
2023/04/05 09:50:05;;;;;;;4.10;3.00;;;8.30;65.70;;;;;;5114695;28;20644;-77
2023/04/05 09:52:31;;;;;;;4.03;2.77;;;8.40;70.00;;;;;;5114526;28;20608;-77
2023/04/05 09:55:02;;;;;;;3.93;2.97;;;8.80;64.50;;;;;;5116053;28;20176;-76
2023/04/05 09:57:32;;;;;;;3.63;2.83;;;8.70;62.90;;;;;;5114793;28;20226;-76
2023/04/05 09:59:58;;;;;;;4.30;3.33;;;8.80;63.70;;;;;;5115708;28;20175;-76
2023/04/05 10:02:24;;;;;;;4.27;3.40;;;8.60;64.30;;;;;;5116264;28;20209;-77
2023/04/05 10:04:50;;;;;;;3.83;2.87;;;8.80;65.20;;;;;;5115792;28;20179;-77
2023/04/05 10:07:18;;;;;;;4.37;2.93;;;9.10;64.80;;;;;;5116140;28;20185;-75
2023/04/05 10:09:47;;;;;;;3.83;3.20;;;9.20;65.70;;;;;;5116048;28;20176;-75
2023/04/05 10:12:25;;;;;;;3.73;2.70;;;9.20;63.20;;;;;;5115800;28;20221;-75
2023/04/05 10:14:51;;;;;;;4.77;3.50;;;9.10;63.70;;;;;;5114843;28;20180;-75
2023/04/05 10:17:24;;;;;;;3.77;3.00;;;8.70;62.90;;;;;;5114241;28;20182;-75
2023/04/05 10:19:59;;;;;;;4.40;3.27;;;8.80;65.80;;;;;;5115980;28;20628;-75
2023/04/05 10:22:37;;;;;;;3.73;3.23;;;8.90;68.00;;;;;;5114496;28;20205;-77
2023/04/05 10:25:38;;;;;;;4.03;3.30;;;9.50;63.30;;;;;;5115444;28;20207;-77
2023/04/05 10:28:34;;;;;;;10.93;3.27;;;9.30;63.60;;;;;;5114422;28;20521;-76
2023/04/05 10:31:39;;;;;;;5.37;3.10;;;8.90;64.70;;;;;;5115200;28;20190;-77
2023/04/05 10:34:32;;;;;;;5.27;3.40;;;9.50;62.40;;;;;;5115627;28;20221;-77
2023/04/05 10:37:00;;;;;;;3.67;3.03;;;9.70;63.00;;;;;;5114081;28;20236;-77
2023/04/05 10:39:42;;;;;;;4.43;3.20;;;9.70;63.00;;;;;;5115205;28;20175;-76
2023/04/05 10:42:25;;;;;;;3.97;3.37;;;9.30;60.90;;;;;;5115208;28;20206;-76
2023/04/05 10:44:58;;;;;;;4.10;3.37;;;9.20;63.50;;;;;;5115198;28;20156;-77
2023/04/05 10:47:27;;;;;;;4.07;3.13;;;9.80;68.40;;;;;;5115279;28;20555;-76
2023/04/05 10:49:56;;;;;;;6.83;3.53;;;10.20;65.30;;;;;;5114731;28;20217;-76
2023/04/05 10:52:22;;;;;;;4.40;3.50;;;10.30;61.00;;;;;;5114819;28;20297;-76
2023/04/05 10:54:48;;;;;;;5.90;3.53;;;10.60;63.80;;;;;;5115432;28;20611;-76
2023/04/05 10:57:18;;;;;;;3.90;3.40;;;10.50;58.90;;;;;;5115058;28;20176;-76
2023/04/05 10:59:45;;;;;;;4.40;3.67;;;10.00;61.20;;;;;;5112618;28;20185;-76
2023/04/05 11:02:11;;;;;;;3.97;3.60;;;10.20;65.20;;;;;;5112821;28;20198;-77
2023/04/05 11:04:39;;;;;;;4.20;3.40;;;10.20;59.10;;;;;;5114092;28;20179;-76
2023/04/05 11:07:25;;;;;;;4.23;3.13;;;10.20;64.20;;;;;;5113172;28;20171;-76
2023/04/05 11:10:02;;;;;;;5.43;3.60;;;10.10;62.20;;;;;;5113823;28;20192;-76
2023/04/05 11:12:48;;;;;;;4.77;3.23;;;10.30;60.70;;;;;;5113775;28;20210;-77
2023/04/05 11:15:31;;;;;;;3.87;3.47;;;10.40;55.90;;;;;;5114379;28;20175;-76
2023/04/05 11:18:11;;;;;;;4.73;3.97;;;10.60;58.90;;;;;;5114749;28;20156;-77
2023/04/05 11:20:51;;;;;;;5.40;3.10;;;10.70;54.50;;;;;;5114394;28;20190;-76
2023/04/05 11:23:20;;;;;;;4.10;3.60;;;10.70;61.00;;;;;;5114511;28;20230;-76
2023/04/05 11:25:47;;;;;;;4.50;3.30;;;11.10;60.00;;;;;;5113956;28;20170;-76
2023/04/05 11:28:30;;;;;;;5.80;3.87;;;11.00;60.50;;;;;;5113035;28;20197;-76
2023/04/05 11:30:57;;;;;;;4.47;3.67;;;11.30;59.50;;;;;;5114336;28;20191;-76
2023/04/05 11:33:53;;;;;;;5.63;3.87;;;11.00;57.80;;;;;;5112840;28;20198;-76
2023/04/05 11:36:35;;;;;;;4.30;3.73;;;10.80;56.90;;;;;;5112934;28;20553;-76
2023/04/05 11:39:19;;;;;;;6.33;3.83;;;10.90;56.80;;;;;;5114496;28;20168;-76
2023/04/05 11:42:02;;;;;;;3.97;3.57;;;10.60;58.40;;;;;;5113865;28;20195;-76
2023/04/05 11:44:30;;;;;;;4.63;3.73;;;11.30;57.70;;;;;;5113929;28;20163;-76
2023/04/05 11:46:56;;;;;;;4.13;3.70;;;12.00;57.30;;;;;;5114355;28;20201;-76
2023/04/05 11:49:23;;;;;;;3.77;3.20;;;12.10;52.50;;;;;;5114170;28;20633;-76
2023/04/05 11:51:53;;;;;;;3.90;3.50;;;12.10;57.80;;;;;;5112484;28;20226;-77
2023/04/05 11:54:32;;;;;;;4.43;3.57;;;11.70;54.90;;;;;;5114059;28;20640;-76
2023/04/05 11:56:58;;;;;;;5.13;3.10;;;11.60;53.10;;;;;;5113986;28;20325;-77
2023/04/05 11:59:42;;;;;;;4.33;3.93;;;11.60;53.00;;;;;;5113993;28;20625;-76
2023/04/05 12:02:08;;;;;;;3.93;3.53;;;11.80;58.10;;;;;;5113943;28;20582;-76
2023/04/05 12:04:35;;;;;;;4.50;3.50;;;12.10;54.00;;;;;;5113975;28;20176;-76
2023/04/05 12:07:14;;;;;;;5.07;4.17;;;11.80;56.20;;;;;;5112661;28;20175;-77
2023/04/05 12:10:02;;;;;;;4.70;3.50;;;11.80;62.50;;;;;;5112431;28;20175;-77
2023/04/05 12:12:37;;;;;;;3.63;3.33;;;12.60;55.00;;;;;;5113682;28;20687;-77
2023/04/05 12:15:07;;;;;;;4.60;4.20;;;13.50;56.80;;;;;;5113748;28;20254;-77
2023/04/05 12:17:48;;;;;;;5.13;3.67;;;14.30;53.40;;;;;;5114023;28;20168;-77
2023/04/05 12:20:22;;;;;;;5.83;3.63;;;13.80;48.10;;;;;;5113756;28;20204;-77
2023/04/05 12:22:50;;;;;;;7.63;3.60;;;13.80;51.10;;;;;;5113697;28;20198;-77
2023/04/05 12:25:17;;;;;;;6.43;3.33;;;14.20;50.60;;;;;;5113630;28;20182;-77
2023/04/05 12:27:43;;;;;;;3.93;3.30;;;13.90;48.20;;;;;;5113657;28;20176;-77
2023/04/05 12:30:17;;;;;;;3.77;3.27;;;13.50;50.90;;;;;;5113755;28;20172;-76
2023/04/05 12:32:53;;;;;;;4.20;3.27;;;12.90;47.60;;;;;;5113607;28;20253;-77
2023/04/05 12:35:31;;;;;;;3.70;3.40;;;12.00;48.70;;;;;;5112251;28;20677;-77
2023/04/05 12:37:58;;;;;;;3.97;3.57;;;12.40;51.00;;;;;;5114038;28;20221;-76
2023/04/05 12:40:24;;;;;;;3.60;3.20;;;13.50;54.70;;;;;;5117254;28;20253;-76
2023/04/05 12:42:50;;;;;;;4.10;3.43;;;14.00;50.40;;;;;;5116076;28;20248;-76
2023/04/05 12:45:17;;;;;;;4.30;3.20;;;13.60;52.20;;;;;;5117385;28;20177;-76
2023/04/05 12:47:51;;;;;;;3.83;3.27;;;13.70;49.60;;;;;;5117433;28;20182;-76
2023/04/05 12:50:18;;;;;;;4.00;3.20;;;13.90;48.80;;;;;;5117192;28;20175;-76
2023/04/05 12:53:01;;;;;;;4.07;3.43;;;14.10;52.50;;;;;;5117104;28;20265;-76
2023/04/05 12:55:28;;;;;;;3.70;3.40;;;14.60;50.10;;;;;;5117749;28;20179;-76
2023/04/05 12:57:59;;;;;;;4.10;3.20;;;14.90;48.80;;;;;;5117426;28;20651;-77
2023/04/05 13:00:27;;;;;;;3.83;3.43;;;15.20;49.00;;;;;;5116047;28;20163;-77
2023/04/05 13:02:54;;;;;;;3.37;2.93;;;15.50;47.20;;;;;;5117788;28;20199;-77
2023/04/05 13:05:21;;;;;;;8.63;3.60;;;15.10;45.40;;;;;;5117244;28;20232;-77
2023/04/05 13:07:47;;;;;;;4.70;3.37;;;15.70;48.00;;;;;;5115944;28;20202;-77
2023/04/05 13:10:13;;;;;;;3.50;3.20;;;16.30;48.30;;;;;;5116798;28;20629;-77
2023/04/05 13:12:39;;;;;;;4.10;3.20;;;16.30;47.70;;;;;;5117231;28;20731;-77
2023/04/05 13:15:05;;;;;;;5.67;3.57;;;15.30;44.50;;;;;;5117025;28;20246;-77
2023/04/05 13:17:31;;;;;;;3.60;3.30;;;15.30;51.60;;;;;;5117390;28;20207;-76
2023/04/05 13:19:57;;;;;;;4.70;3.60;;;15.50;45.80;;;;;;5117112;28;20172;-75
2023/04/05 13:22:22;;;;;;;4.67;3.43;;;15.80;46.20;;;;;;5116976;28;20219;-79
2023/04/05 13:24:48;;;;;;;4.97;3.27;;;15.90;47.00;;;;;;5117275;28;20664;-78
2023/04/05 13:27:13;;;;;;;8.43;3.50;;;16.20;45.80;;;;;;5117433;28;20532;-76
2023/04/05 13:29:39;;;;;;;4.10;3.33;;;16.50;44.90;;;;;;5115182;28;20655;-77
2023/04/05 13:32:05;;;;;;;6.30;3.00;;;16.40;47.20;;;;;;5116470;28;20280;-77
2023/04/05 13:34:31;;;;;;;5.03;2.80;;;16.20;44.90;;;;;;5116799;28;20179;-77
2023/04/05 13:36:57;;;;;;;3.10;2.83;;;16.00;45.10;;;;;;5116684;28;20167;-77
2023/04/05 13:39:22;;;;;;;4.10;2.90;;;15.90;44.20;;;;;;5117266;28;20207;-77
2023/04/05 13:41:48;;;;;;;4.30;3.40;;;16.10;46.10;;;;;;5115722;28;20199;-77
2023/04/05 13:44:14;;;;;;;3.60;3.20;;;16.00;45.00;;;;;;5116228;28;20175;-77
2023/04/05 13:46:39;;;;;;;4.27;3.43;;;15.70;47.40;;;;;;5116251;28;20195;-77
2023/04/05 13:49:05;;;;;;;3.53;3.23;;;15.00;45.60;;;;;;5116177;28;20186;-77
2023/04/05 13:51:33;;;;;;;3.67;3.03;;;15.00;45.50;;;;;;5115654;28;20298;-77
2023/04/05 13:53:59;;;;;;;3.73;3.30;;;15.40;46.90;;;;;;5114822;28;20229;-78
2023/04/05 13:56:24;;;;;;;4.83;3.23;;;15.90;45.50;;;;;;5116195;28;20168;-77
2023/04/05 13:58:50;;;;;;;3.97;3.50;;;16.30;43.20;;;;;;5113731;28;20341;-77
2023/04/05 14:01:16;;;;;;;3.30;2.97;;;16.20;44.90;;;;;;5116156;28;20195;-77
2023/04/05 14:03:41;;;;;;;3.47;3.17;;;15.10;41.30;;;;;;5116215;28;20248;-77
2023/04/05 14:06:07;;;;;;;4.37;2.83;;;15.20;44.80;;;;;;5114700;28;20240;-77
2023/04/05 14:08:33;;;;;;;4.23;3.30;;;14.90;46.00;;;;;;5115807;28;20668;-77
2023/04/05 14:10:59;;;;;;;4.73;3.37;;;15.10;44.60;;;;;;5115641;28;20218;-77
2023/04/05 14:13:24;;;;;;;4.30;3.70;;;15.00;44.90;;;;;;5115736;28;20222;-77
2023/04/05 14:15:51;;;;;;;5.33;4.23;;;15.50;47.10;;;;;;5114595;28;20630;-78
2023/04/05 14:18:16;;;;;;;4.80;3.87;;;15.20;45.50;;;;;;5115635;28;20570;-77
2023/04/05 14:20:42;;;;;;;3.63;3.33;;;15.20;45.50;;;;;;5115655;28;20679;-77
2023/04/05 14:23:08;;;;;;;4.33;3.60;;;15.80;43.80;;;;;;5115583;28;20192;-77
2023/04/05 14:25:34;;;;;;;3.57;3.27;;;16.10;41.50;;;;;;5116474;28;20182;-78
2023/04/05 14:27:59;;;;;;;3.80;3.40;;;15.90;43.00;;;;;;5117160;28;20174;-78
2023/04/05 14:30:25;;;;;;;4.10;3.63;;;15.90;42.20;;;;;;5115867;28;20275;-77
2023/04/05 14:32:51;;;;;;;3.97;3.57;;;15.70;41.00;;;;;;5116086;28;20206;-77
2023/04/05 14:35:17;;;;;;;5.07;3.80;;;14.60;41.60;;;;;;5114476;28;20270;-77
2023/04/05 14:37:42;;;;;;;5.80;4.23;;;13.90;44.20;;;;;;5115582;28;20167;-77
2023/04/05 14:40:09;;;;;;;4.37;3.67;;;13.80;46.30;;;;;;5115077;28;20533;-77
2023/04/05 14:42:34;;;;;;;4.30;3.90;;;14.20;46.30;;;;;;5113716;28;20195;-77
2023/04/05 14:45:00;;;;;;;6.07;3.37;;;14.60;46.10;;;;;;5113904;28;20178;-77
2023/04/05 14:47:26;;;;;;;6.30;3.70;;;14.90;45.70;;;;;;5113793;28;20179;-77
2023/04/05 14:49:52;;;;;;;4.40;4.00;;;14.80;43.60;;;;;;5115066;28;20175;-77
2023/04/05 14:52:17;;;;;;;7.27;3.57;;;15.00;45.50;;;;;;5114842;28;20305;-77
2023/04/05 14:54:44;;;;;;;6.60;4.30;;;15.30;44.80;;;;;;5115094;28;20171;-77
2023/04/05 14:57:09;;;;;;;5.00;4.50;;;14.90;44.60;;;;;;5114835;28;20164;-77
2023/04/05 14:59:35;;;;;;;6.43;3.93;;;14.70;44.50;;;;;;5114963;28;20257;-77
2023/04/05 15:02:01;;;;;;;4.43;4.03;;;14.80;44.20;;;;;;5114329;28;20196;-77
2023/04/05 15:04:27;;;;;;;4.27;3.87;;;15.00;44.10;;;;;;5115007;28;20651;-77
2023/04/05 15:06:53;;;;;;;6.13;4.07;;;15.10;45.30;;;;;;5114646;28;20194;-77
2023/04/05 15:09:19;;;;;;;4.87;3.87;;;14.30;44.60;;;;;;5114636;28;20199;-77
2023/04/05 15:11:45;;;;;;;5.67;4.50;;;14.40;47.20;;;;;;5114410;28;20216;-77
2023/04/05 15:14:11;;;;;;;4.73;4.23;;;14.20;45.40;;;;;;5114930;28;20527;-77
2023/04/05 15:16:37;;;;;;;4.80;4.07;;;14.10;44.50;;;;;;5114505;28;20170;-77
2023/04/05 15:19:03;;;;;;;4.33;3.93;;;14.30;45.30;;;;;;5114491;28;20183;-77
2023/04/05 15:21:28;;;;;;;4.60;4.20;;;14.40;45.00;;;;;;5114179;28;20246;-77
2023/04/05 15:23:54;;;;;;;5.60;4.33;;;14.70;44.30;;;;;;5117107;28;20226;-78
2023/04/05 15:26:20;;;;;;;4.73;4.17;;;14.50;45.60;;;;;;5115726;28;20174;-79
2023/04/05 15:28:46;;;;;;;5.27;4.77;;;14.50;44.50;;;;;;5115287;28;20188;-77
2023/04/05 15:31:12;;;;;;;5.90;4.40;;;14.10;44.00;;;;;;5114134;28;20192;-77
2023/04/05 15:33:37;;;;;;;8.27;4.47;;;13.60;44.90;;;;;;5114264;28;20277;-77
2023/04/05 15:36:03;;;;;;;4.83;4.43;;;13.50;45.60;;;;;;5113075;28;20180;-77
2023/04/05 15:38:29;;;;;;;4.97;4.47;;;13.50;46.10;;;;;;5114317;28;20585;-77
2023/04/05 15:40:56;;;;;;;5.00;4.50;;;12.90;46.90;;;;;;5116896;28;20192;-77
2023/04/05 15:43:23;;;;;;;6.33;4.60;;;12.40;48.50;;;;;;5116779;28;20208;-78
2023/04/05 15:45:49;;;;;;;6.20;4.63;;;12.30;47.70;;;;;;5112628;28;20180;-77
2023/04/05 15:48:15;;;;;;;6.80;4.73;;;11.60;47.20;;;;;;5111718;28;20180;-78
2023/04/05 15:50:41;;;;;;;5.27;4.33;;;10.30;48.60;;;;;;5113746;28;20672;-77
2023/04/05 15:53:07;;;;;;;5.80;4.70;;;9.30;51.70;;;;;;5112807;28;20199;-77
2023/04/05 15:55:33;;;;;;;6.23;4.80;;;8.70;54.50;;;;;;5113818;28;20167;-77
2023/04/05 15:57:59;;;;;;;5.97;4.17;;;8.30;55.60;;;;;;5113855;28;20221;-78
2023/04/05 16:00:27;;;;;;;5.00;4.50;;;7.50;54.30;;;;;;5113858;28;20167;-77
2023/04/05 16:02:54;;;;;;;6.10;4.67;;;7.30;56.50;;;;;;5113774;28;20278;-77
2023/04/05 16:05:20;;;;;;;7.73;4.53;;;7.20;57.00;;;;;;5112542;28;20334;-77
2023/04/05 16:07:45;;;;;;;6.43;4.90;;;7.20;56.70;;;;;;5113984;28;20261;-77
2023/04/05 16:10:11;;;;;;;5.23;4.63;;;6.90;57.50;;;;;;5113941;28;20167;-77
2023/04/05 16:12:37;;;;;;;7.33;4.97;;;6.80;59.80;;;;;;5115314;28;20745;-77
2023/04/05 16:15:03;;;;;;;6.77;5.20;;;6.70;57.90;;;;;;5119080;28;20171;-77
2023/04/05 16:17:29;;;;;;;8.23;4.90;;;6.50;58.70;;;;;;5118055;28;20636;-77
2023/04/05 16:19:55;;;;;;;7.00;5.47;;;6.50;59.10;;;;;;5117721;28;20194;-77
2023/04/05 16:22:20;;;;;;;6.50;4.80;;;6.40;59.90;;;;;;5117676;28;20199;-77
2023/04/05 16:24:46;;;;;;;6.13;5.10;;;6.50;60.20;;;;;;5117908;28;20212;-77
2023/04/05 16:27:12;;;;;;;7.27;5.37;;;6.50;58.80;;;;;;5116355;28;20702;-77
2023/04/05 16:29:38;;;;;;;7.17;5.17;;;6.50;59.50;;;;;;5117837;28;20181;-77
2023/04/05 16:32:04;;;;;;;6.50;5.13;;;6.40;58.60;;;;;;5117664;28;20209;-76
2023/04/05 16:34:29;;;;;;;10.23;5.53;;;6.20;60.40;;;;;;5117596;28;20166;-77
2023/04/05 16:36:55;;;;;;;8.73;6.27;;;6.20;59.90;;;;;;5117810;28;20252;-77
2023/04/05 16:39:21;;;;;;;7.43;6.03;;;6.10;59.60;;;;;;5117413;28;20172;-77
2023/04/05 16:41:47;;;;;;;9.50;6.17;;;6.10;59.50;;;;;;5117277;28;20199;-77
2023/04/05 16:44:13;;;;;;;7.93;5.13;;;;;;;;;;5116061;28;20218;-76
2023/04/05 16:46:39;;;;;;;7.90;5.30;;;6.10;60.40;;;;;;5116918;28;20202;-76
2023/04/05 16:49:05;;;;;;;6.57;5.13;;;;;;;;;;5115880;28;20649;-77
2023/04/05 16:51:32;;;;;;;6.70;5.47;;;5.80;60.70;;;;;;5115560;28;20230;-76
